createdAt,value
2019-03-15T00:01:36.746Z,36.57
2019-03-15T00:04:40.576Z,33.60
2019-03-15T00:07:44.474Z,32.43
2019-03-15T00:10:48.664Z,31.97
2019-03-15T00:13:52.237Z,30.93
2019-03-15T00:16:56.148Z,27.80
2019-03-15T00:19:59.723Z,32.80
2019-03-15T00:23:03.576Z,28.87
2019-03-15T00:26:07.163Z,29.97
2019-03-15T00:29:10.732Z,28.87
2019-03-15T00:32:15.610Z,27.17
2019-03-15T00:35:19.298Z,29.83
2019-03-15T00:38:23.951Z,28.37
2019-03-15T00:41:27.543Z,26.57
2019-03-15T00:44:31.671Z,24.13
2019-03-15T00:47:35.357Z,23.70
2019-03-15T00:50:38.932Z,24.27
2019-03-15T00:53:42.503Z,24.63
2019-03-15T00:56:46.415Z,23.33
2019-03-15T00:59:49.987Z,23.03
2019-03-15T01:02:53.564Z,22.57
2019-03-15T01:05:57.420Z,22.63
2019-03-15T01:09:01.020Z,20.80
2019-03-15T01:12:04.947Z,19.80
2019-03-15T01:15:08.562Z,18.60
2019-03-15T01:18:12.143Z,21.40
2019-03-15T01:21:15.743Z,19.47
2019-03-15T01:24:19.552Z,18.63
2019-03-15T01:27:23.480Z,19.50
2019-03-15T01:30:27.053Z,20.07
2019-03-15T01:33:30.883Z,18.33
2019-03-15T01:36:34.472Z,18.37
2019-03-15T01:39:38.289Z,17.10
2019-03-15T01:42:42.159Z,18.30
2019-03-15T01:45:45.732Z,16.50
2019-03-15T01:48:49.833Z,16.90
2019-03-15T01:51:53.412Z,15.90
2019-03-15T01:54:56.988Z,15.80
2019-03-15T01:58:00.575Z,15.60
2019-03-15T02:01:04.632Z,15.33
2019-03-15T02:04:08.310Z,14.13
2019-03-15T02:07:11.889Z,14.60
2019-03-15T02:10:15.480Z,13.50
2019-03-15T02:13:19.377Z,13.37
2019-03-15T02:16:22.964Z,14.30
2019-03-15T02:19:26.544Z,13.47
2019-03-15T02:22:30.131Z,12.20
2019-03-15T02:25:33.708Z,13.33
2019-03-15T02:28:37.611Z,12.63
2019-03-15T02:31:41.197Z,12.53
2019-03-15T02:34:44.768Z,12.43
2019-03-15T02:37:48.627Z,12.60
2019-03-15T02:40:52.250Z,11.57
2019-03-15T02:43:55.830Z,12.20
2019-03-15T02:46:59.406Z,12.47
2019-03-15T02:50:03.001Z,10.77
2019-03-15T02:53:06.588Z,11.07
2019-03-15T02:56:10.182Z,11.53
2019-03-15T02:59:14.079Z,9.83
2019-03-15T03:02:17.640Z,10.70
2019-03-15T03:05:21.205Z,9.93
2019-03-15T03:08:24.781Z,9.80
2019-03-15T03:11:28.361Z,9.80
2019-03-15T03:14:31.943Z,9.77
2019-03-15T03:17:35.796Z,9.47
2019-03-15T03:20:39.351Z,9.30
2019-03-15T03:23:43.244Z,9.33
2019-03-15T03:26:47.151Z,8.40
2019-03-15T03:29:51.344Z,8.53
2019-03-15T03:32:55.568Z,9.37
2019-03-15T03:36:00.984Z,8.60
2019-03-15T03:39:06.774Z,8.70
2019-03-15T03:42:10.720Z,8.03
2019-03-15T03:45:14.656Z,8.30
2019-03-15T03:48:18.493Z,7.63
2019-03-15T03:51:22.533Z,8.63
2019-03-15T03:54:26.516Z,8.27
2019-03-15T03:57:30.072Z,7.37
2019-03-15T04:00:33.721Z,8.17
2019-03-15T04:03:37.952Z,7.57
2019-03-15T04:06:41.516Z,7.10
2019-03-15T04:09:45.096Z,7.10
2019-03-15T04:12:48.661Z,6.90
2019-03-15T04:15:52.876Z,7.37
2019-03-15T04:18:56.480Z,7.60
2019-03-15T04:22:00.701Z,6.40
2019-03-15T04:25:07.240Z,6.60
2019-03-15T04:28:09.988Z,6.20
2019-03-15T04:31:13.665Z,6.80
2019-03-15T04:34:17.464Z,6.53
2019-03-15T04:37:22.845Z,6.50
2019-03-15T04:40:26.820Z,5.93
2019-03-15T04:43:30.383Z,6.37
2019-03-15T04:46:33.960Z,6.17
2019-03-15T04:49:38.143Z,5.90
2019-03-15T04:52:42.273Z,5.90
2019-03-15T04:55:46.170Z,5.57
2019-03-15T04:58:49.742Z,5.40
2019-03-15T05:01:53.600Z,5.50
2019-03-15T05:05:00.167Z,5.80
2019-03-15T05:08:02.729Z,5.70
2019-03-15T05:11:06.869Z,32.33
2019-03-15T05:14:10.432Z,24.87
2019-03-15T05:17:14.016Z,30.57
2019-03-15T05:20:20.901Z,28.20
2019-03-15T05:23:23.521Z,28.47
2019-03-15T05:26:27.126Z,57.90
2019-03-15T05:29:30.705Z,69.93
2019-03-15T05:32:34.647Z,199.70
2019-03-15T05:35:38.457Z,188.83
2019-03-15T05:38:42.052Z,160.03
2019-03-15T05:41:45.633Z,152.03
2019-03-15T05:44:49.209Z,146.03
2019-03-15T05:47:52.800Z,146.23
2019-03-15T05:50:56.379Z,141.87
2019-03-15T05:54:00.289Z,134.73
2019-03-15T05:57:04.144Z,7.77
2019-03-15T06:00:09.595Z,7.90
2019-03-15T06:03:13.186Z,18.00
2019-03-15T06:06:17.083Z,32.07
2019-03-15T06:09:20.909Z,30.20
2019-03-15T06:12:24.493Z,30.10
2019-03-15T06:15:28.076Z,30.93
2019-03-15T06:18:31.893Z,27.90
2019-03-15T06:21:35.474Z,29.40
2019-03-15T06:24:39.037Z,28.33
2019-03-15T06:27:42.616Z,26.17
2019-03-15T06:30:46.500Z,26.17
2019-03-15T06:33:50.077Z,25.73
2019-03-15T06:36:54.226Z,26.70
2019-03-15T06:39:57.800Z,25.07
2019-03-15T06:43:01.650Z,24.93
2019-03-15T06:46:05.303Z,22.53
2019-03-15T06:49:09.199Z,23.33
2019-03-15T06:52:12.775Z,21.80
2019-03-15T06:55:16.339Z,22.07
2019-03-15T06:58:20.289Z,21.53
2019-03-15T07:01:24.144Z,20.13
2019-03-15T07:04:28.215Z,19.67
2019-03-15T07:07:31.792Z,20.83
2019-03-15T07:10:35.375Z,19.63
2019-03-15T07:13:39.269Z,19.70
2019-03-15T07:16:43.070Z,18.47
2019-03-15T07:19:46.651Z,19.53
2019-03-15T07:22:50.536Z,17.90
2019-03-15T07:25:54.114Z,18.53
2019-03-15T07:28:57.957Z,17.50
2019-03-15T07:32:01.884Z,17.33
2019-03-15T07:35:05.747Z,16.93
2019-03-15T07:38:09.318Z,17.87
2019-03-15T07:41:12.914Z,16.93
2019-03-15T07:44:16.476Z,16.00
2019-03-15T07:47:20.041Z,15.60
2019-03-15T07:50:23.670Z,15.30
2019-03-15T07:53:27.545Z,14.77
2019-03-15T07:56:31.130Z,15.03
2019-03-15T07:59:35.028Z,15.30
2019-03-15T08:02:38.601Z,14.57
2019-03-15T08:05:42.171Z,14.47
2019-03-15T08:08:46.103Z,14.13
2019-03-15T08:11:50.057Z,12.73
2019-03-15T08:14:53.637Z,12.77
2019-03-15T08:17:57.210Z,13.50
2019-03-15T08:21:00.820Z,12.70
2019-03-15T08:24:04.397Z,12.17
2019-03-15T08:27:07.981Z,12.30
2019-03-15T08:30:12.373Z,11.47
2019-03-15T08:33:15.944Z,12.30
2019-03-15T08:36:20.427Z,12.13
2019-03-15T08:39:24.064Z,11.23
2019-03-15T08:42:27.651Z,11.53
2019-03-15T08:45:31.306Z,11.37
2019-03-15T08:48:34.873Z,10.40
2019-03-15T08:51:38.465Z,10.27
2019-03-15T08:54:42.034Z,11.20
2019-03-15T08:57:45.617Z,10.37
2019-03-15T09:00:49.193Z,9.60
2019-03-15T09:03:52.802Z,9.90
2019-03-15T09:06:56.432Z,9.50
2019-03-15T09:10:03.361Z,8.77
2019-03-15T09:13:05.916Z,10.33
2019-03-15T09:16:09.481Z,9.20
2019-03-15T09:19:13.338Z,8.70
2019-03-15T09:22:16.973Z,8.20
2019-03-15T09:25:21.211Z,8.80
2019-03-15T09:28:25.180Z,8.30
2019-03-15T09:31:33.469Z,8.37
2019-03-15T09:34:34.042Z,8.73
2019-03-15T09:37:37.690Z,8.30
2019-03-15T09:40:41.260Z,7.50
2019-03-15T09:43:45.520Z,7.93
2019-03-15T09:46:49.395Z,7.70
2019-03-15T09:49:53.572Z,7.57
2019-03-15T09:52:57.508Z,7.10
2019-03-15T09:56:01.118Z,7.27
2019-03-15T09:59:04.693Z,7.33
2019-03-15T10:02:08.268Z,6.90
2019-03-15T10:05:11.896Z,6.20
2019-03-15T10:08:15.754Z,6.43
2019-03-15T10:11:19.518Z,6.87
2019-03-15T10:14:23.088Z,6.40
2019-03-15T10:17:26.789Z,6.03
2019-03-15T10:20:30.339Z,6.37
2019-03-15T10:23:34.197Z,6.17
2019-03-15T10:26:37.769Z,6.67
2019-03-15T10:29:41.341Z,5.73
2019-03-15T10:32:45.286Z,6.17
2019-03-15T10:35:48.862Z,6.00
2019-03-15T10:38:52.784Z,6.00
2019-03-15T10:41:56.916Z,5.57
2019-03-15T10:45:00.828Z,5.53
2019-03-15T10:48:07.925Z,5.27
2019-03-15T10:51:10.269Z,5.53
2019-03-15T10:54:13.848Z,5.30
2019-03-15T10:57:17.413Z,5.50
2019-03-15T11:00:21.000Z,5.00
2019-03-15T11:03:24.911Z,5.20
2019-03-15T11:06:28.507Z,4.83
2019-03-15T11:09:32.417Z,5.10
2019-03-15T11:12:35.979Z,5.00
2019-03-15T11:15:40.136Z,5.13
2019-03-15T11:18:43.699Z,4.90
2019-03-15T11:21:47.308Z,4.97
2019-03-15T11:24:50.977Z,5.20
2019-03-15T11:27:54.542Z,4.90
2019-03-15T11:31:00.646Z,4.23
2019-03-15T11:34:03.393Z,4.50
2019-03-15T11:37:06.948Z,4.40
2019-03-15T11:40:13.695Z,4.33
2019-03-15T11:43:16.196Z,4.27
2019-03-15T11:46:20.089Z,4.13
2019-03-15T11:49:23.966Z,4.20
2019-03-15T11:52:27.541Z,4.23
2019-03-15T11:55:31.333Z,4.17
2019-03-15T11:58:35.188Z,3.70
2019-03-15T12:01:39.010Z,3.47
2019-03-15T12:04:42.574Z,3.83
2019-03-15T12:07:46.404Z,4.00
2019-03-15T12:10:50.223Z,3.80
2019-03-15T12:13:53.791Z,3.53
2019-03-15T12:16:57.364Z,3.43
2019-03-15T12:20:01.263Z,4.10
2019-03-15T12:23:04.836Z,3.40
2019-03-15T12:26:10.151Z,3.00
2019-03-15T12:29:13.759Z,3.23
2019-03-15T12:32:17.338Z,3.90
2019-03-15T12:35:20.892Z,3.63
2019-03-15T12:38:24.726Z,3.30
2019-03-15T12:41:28.378Z,3.23
2019-03-15T12:44:31.947Z,3.40
2019-03-15T12:47:35.842Z,3.10
2019-03-15T12:50:39.943Z,3.47
2019-03-15T12:53:43.516Z,2.77
2019-03-15T12:56:53.574Z,2.70
2019-03-15T12:59:52.620Z,2.40
2019-03-15T13:02:56.185Z,3.07
2019-03-15T13:05:59.750Z,2.50
2019-03-15T13:09:04.111Z,2.50
2019-03-15T13:12:07.667Z,2.60
2019-03-15T13:15:12.696Z,2.20
2019-03-15T13:18:16.258Z,2.40
2019-03-15T13:21:20.984Z,2.30
2019-03-15T13:24:24.654Z,2.13
2019-03-15T13:27:28.216Z,2.30
2019-03-15T13:30:31.848Z,2.50
2019-03-15T13:33:36.367Z,2.27
2019-03-15T13:36:39.927Z,2.40
2019-03-15T13:39:43.768Z,2.50
2019-03-15T13:42:47.513Z,2.30
2019-03-15T13:45:51.071Z,111.07
2019-03-15T13:48:54.658Z,96.20
2019-03-15T13:51:58.232Z,232.50
2019-03-15T13:55:01.810Z,139.40
2019-03-15T13:58:05.774Z,153.03
2019-03-15T14:01:09.625Z,135.60
2019-03-15T14:04:13.537Z,139.20
2019-03-15T14:07:19.818Z,135.83
2019-03-15T14:10:23.307Z,132.00
2019-03-15T14:13:27.220Z,137.23
2019-03-15T14:16:30.804Z,135.83
2019-03-15T14:19:34.735Z,136.23
2019-03-15T14:22:38.630Z,132.07
2019-03-15T14:25:42.219Z,123.57
2019-03-15T14:28:45.788Z,127.13
2019-03-15T14:31:49.651Z,110.40
2019-03-15T14:34:53.260Z,111.60
2019-03-15T14:37:56.852Z,110.83
2019-03-15T14:41:00.634Z,101.37
2019-03-15T14:44:04.710Z,102.90
2019-03-15T14:47:08.710Z,99.37
2019-03-15T14:50:12.291Z,93.73
2019-03-15T14:53:16.426Z,91.07
2019-03-15T14:56:20.013Z,89.73
2019-03-15T14:59:23.591Z,89.50
2019-03-15T15:02:27.174Z,81.60
2019-03-15T15:05:31.343Z,88.90
2019-03-15T15:08:35.572Z,84.17
2019-03-15T15:11:39.388Z,81.13
2019-03-15T15:14:43.189Z,82.30
2019-03-15T15:17:47.083Z,72.17
2019-03-15T15:20:50.914Z,78.07
2019-03-15T15:23:54.827Z,67.27
2019-03-15T15:26:58.401Z,67.80
2019-03-15T15:30:01.976Z,67.97
2019-03-15T15:33:05.560Z,64.17
2019-03-15T15:36:09.381Z,61.90
2019-03-15T15:39:12.954Z,64.43
2019-03-15T15:42:17.163Z,65.87
2019-03-15T15:45:21.064Z,83.07
2019-03-15T15:48:25.295Z,86.70
2019-03-15T15:51:29.211Z,86.60
2019-03-15T15:54:32.785Z,85.30
2019-03-15T15:57:36.372Z,80.97
2019-03-15T16:00:39.948Z,81.40
2019-03-15T16:03:43.544Z,74.87
2019-03-15T16:06:47.124Z,74.70
2019-03-15T16:09:50.709Z,64.63
2019-03-15T16:12:54.283Z,69.50
2019-03-15T16:15:58.145Z,53.10
2019-03-15T16:19:01.737Z,105.63
2019-03-15T16:22:05.313Z,91.30
2019-03-15T16:25:09.181Z,132.40
2019-03-15T16:28:12.765Z,153.10
2019-03-15T16:31:16.344Z,138.93
2019-03-15T16:34:22.096Z,123.93
2019-03-15T16:37:25.765Z,115.60
2019-03-15T16:40:29.353Z,104.70
2019-03-15T16:43:33.233Z,100.10
2019-03-15T16:46:37.140Z,94.47
2019-03-15T16:49:40.722Z,87.90
2019-03-15T16:52:45.685Z,83.60
2019-03-15T16:55:49.314Z,78.57
2019-03-15T16:58:52.924Z,72.77
2019-03-15T17:01:56.799Z,69.83
2019-03-15T17:05:00.666Z,70.50
2019-03-15T17:08:04.827Z,65.13
2019-03-15T17:11:08.426Z,62.33
2019-03-15T17:14:24.835Z,60.43
2019-03-15T17:17:17.309Z,58.17
2019-03-15T17:20:20.879Z,52.73
2019-03-15T17:23:24.446Z,50.60
2019-03-15T17:26:28.046Z,54.20
2019-03-15T17:29:31.619Z,49.93
2019-03-15T17:32:35.185Z,50.40
2019-03-15T17:35:38.803Z,33.37
2019-03-15T17:38:42.933Z,37.63
2019-03-15T17:41:46.776Z,36.07
2019-03-15T17:44:50.350Z,33.87
2019-03-15T17:47:54.254Z,33.63
2019-03-15T17:50:57.846Z,34.13
2019-03-15T17:54:01.636Z,31.23
2019-03-15T17:57:05.521Z,30.27
2019-03-15T18:00:14.836Z,27.93
2019-03-15T18:03:21.900Z,26.10
2019-03-15T18:06:24.677Z,24.13
2019-03-15T18:09:28.606Z,24.70
2019-03-15T18:12:32.190Z,23.20
2019-03-15T18:15:36.327Z,20.80
2019-03-15T18:18:39.899Z,22.00
2019-03-15T18:21:43.471Z,20.73
2019-03-15T18:24:47.037Z,18.90
2019-03-15T18:27:50.683Z,18.90
2019-03-15T18:30:54.583Z,19.10
2019-03-15T18:33:58.445Z,18.13
2019-03-15T18:37:02.021Z,16.70
2019-03-15T18:40:08.213Z,15.97
2019-03-15T18:43:12.130Z,15.83
2019-03-15T18:46:15.699Z,16.13
2019-03-15T18:49:19.274Z,16.30
2019-03-15T18:52:23.207Z,14.47
2019-03-15T18:55:27.563Z,13.47
2019-03-15T18:58:31.136Z,13.33
2019-03-15T19:01:34.718Z,13.10
2019-03-15T19:04:38.535Z,12.93
2019-03-15T19:07:42.445Z,12.93
2019-03-15T19:10:46.027Z,13.10
2019-03-15T19:13:50.233Z,11.23
2019-03-15T19:16:53.810Z,12.97
2019-03-15T19:19:57.383Z,11.77
2019-03-15T19:23:01.040Z,12.27
2019-03-15T19:26:04.608Z,14.07
2019-03-15T19:29:08.185Z,69.60
2019-03-15T19:32:12.362Z,284.50
2019-03-15T19:35:15.960Z,110.50
2019-03-15T19:38:19.536Z,134.87
2019-03-15T19:41:23.373Z,139.20
2019-03-15T19:44:26.956Z,128.87
2019-03-15T19:47:30.802Z,119.20
2019-03-15T19:50:34.704Z,116.53
2019-03-15T19:53:38.578Z,94.67
2019-03-15T19:56:42.149Z,99.23
2019-03-15T19:59:45.729Z,96.20
2019-03-15T20:02:49.307Z,88.13
2019-03-15T20:05:52.882Z,84.17
2019-03-15T20:08:56.476Z,78.13
2019-03-15T20:12:00.055Z,71.87
2019-03-15T20:15:03.638Z,94.30
2019-03-15T20:18:07.543Z,60.10
2019-03-15T20:21:11.911Z,252.13
2019-03-15T20:24:15.503Z,88.17
2019-03-15T20:27:19.381Z,60.00
2019-03-15T20:30:26.202Z,43.60
2019-03-15T20:33:28.261Z,109.57
2019-03-15T20:36:32.450Z,126.13
2019-03-15T20:39:36.313Z,128.67
2019-03-15T20:42:39.896Z,123.93
2019-03-15T20:45:43.780Z,119.90
2019-03-15T20:48:47.845Z,110.63
2019-03-15T20:51:52.023Z,117.63
2019-03-15T20:54:55.605Z,114.13
2019-03-15T20:57:59.319Z,96.30
2019-03-15T21:01:02.984Z,105.57
2019-03-15T21:04:06.562Z,94.37
2019-03-15T21:07:10.646Z,94.40
2019-03-15T21:10:14.422Z,101.53
2019-03-15T21:13:17.989Z,97.53
2019-03-15T21:16:21.574Z,96.13
2019-03-15T21:19:25.151Z,95.90
2019-03-15T21:22:28.795Z,94.67
2019-03-15T21:25:32.372Z,88.97
2019-03-15T21:28:36.278Z,84.67
2019-03-15T21:31:40.201Z,81.07
2019-03-15T21:34:44.424Z,82.63
2019-03-15T21:37:48.081Z,82.10
2019-03-15T21:40:51.966Z,55.97
2019-03-15T21:43:55.780Z,41.10
2019-03-15T21:46:59.650Z,85.43
2019-03-15T21:50:03.259Z,81.20
2019-03-15T21:53:06.841Z,82.60
2019-03-15T21:56:10.946Z,79.00
2019-03-15T21:59:14.783Z,79.57
2019-03-15T22:02:18.710Z,48.73
2019-03-15T22:05:22.283Z,71.70
2019-03-15T22:08:25.886Z,40.50
2019-03-15T22:11:29.812Z,25.57
2019-03-15T22:14:33.737Z,20.43
2019-03-15T22:17:37.831Z,235.30
2019-03-15T22:20:41.799Z,50.97
2019-03-15T22:23:45.664Z,71.87
2019-03-15T22:26:49.535Z,71.40
2019-03-15T22:29:53.964Z,68.07
2019-03-15T22:32:58.321Z,69.40
2019-03-15T22:36:01.918Z,68.30
2019-03-15T22:39:06.772Z,65.03
2019-03-15T22:42:10.678Z,60.43
2019-03-15T22:45:15.028Z,59.93
2019-03-15T22:48:18.854Z,61.63
2019-03-15T22:51:22.708Z,56.73
2019-03-15T22:54:26.633Z,56.47
2019-03-15T22:57:30.313Z,53.23
2019-03-15T23:00:37.954Z,51.13
2019-03-15T23:03:41.538Z,44.10
2019-03-15T23:06:45.559Z,44.60
2019-03-15T23:09:49.409Z,42.03
2019-03-15T23:12:53.000Z,39.70
2019-03-15T23:15:56.571Z,38.80
2019-03-15T23:19:00.151Z,36.27
2019-03-15T23:22:04.295Z,35.47
2019-03-15T23:25:08.020Z,35.20
2019-03-15T23:28:11.595Z,35.43
2019-03-15T23:31:15.458Z,29.53
2019-03-15T23:34:19.365Z,33.43
2019-03-15T23:37:22.946Z,29.30
2019-03-15T23:40:26.525Z,30.67
2019-03-15T23:43:30.184Z,26.70
2019-03-15T23:46:34.078Z,26.73
2019-03-15T23:49:37.662Z,28.60
2019-03-15T23:52:41.464Z,27.53
2019-03-15T23:55:45.401Z,24.93
2019-03-15T23:58:49.286Z,25.83
